Time;durP1;ratioP1;P1;durP2;ratioP2;P2;SDS_P1;SDS_P2;PMS_P1;PMS_P2;Temp;Humidity;BMP_temperature;BMP_pressure;BME280_temperature;BME280_humidity;BME280_pressure;Samples;Min_cycle;Max_cycle;Signal;HPM_P1;HPM_P2
2022/10/28 00:01:04;;;;;;;;;4.00;3.00;;;;;25.87;28.73;100362.28;5037948;28;45385;-70
2022/10/28 00:03:30;;;;;;;;;6.33;4.33;;;;;25.87;28.53;100361.41;5038122;28;45596;-71
2022/10/28 00:06:08;;;;;;;;;5.33;4.00;;;;;25.92;28.59;100365.69;5037653;28;45981;-71
2022/10/28 00:08:34;;;;;;;;;5.67;4.00;;;;;25.84;28.48;100370.41;5037926;28;45501;-71
2022/10/28 00:11:10;;;;;;;;;3.67;3.33;;;;;25.87;28.69;100378.34;5037896;28;45425;-71
2022/10/28 00:13:36;;;;;;;;;4.33;4.00;;;;;25.80;28.85;100366.09;5037779;28;45679;-71
2022/10/28 00:16:07;;;;;;;;;4.67;3.67;;;;;25.88;28.29;100363.16;5036186;28;47863;-71
2022/10/28 00:18:33;;;;;;;;;4.33;4.00;;;;;25.70;28.60;100328.09;5053449;28;45541;-71
2022/10/28 00:21:07;;;;;;;;;3.00;3.00;;;;;25.82;29.22;100356.22;5037608;28;45440;-71
2022/10/28 00:23:33;;;;;;;;;5.00;3.33;;;;;25.83;28.54;100373.16;5039327;28;45460;-71
2022/10/28 00:26:11;;;;;;;;;3.00;3.00;;;;;25.68;28.93;100356.69;5039303;28;45882;-71
2022/10/28 00:28:46;;;;;;;;;5.33;3.00;;;;;25.81;28.86;100383.91;5037512;28;45452;-71
2022/10/28 00:31:15;;;;;;;;;3.33;3.33;;;;;25.80;28.78;100377.69;5038976;28;45509;-71
2022/10/28 00:33:41;;;;;;;;;2.67;2.33;;;;;25.81;29.09;100383.91;5039097;28;45592;-71
2022/10/28 00:36:14;;;;;;;;;4.33;4.00;;;;;25.70;28.95;100370.91;5037628;28;46891;-71
2022/10/28 00:38:43;;;;;;;;;6.00;4.00;;;;;25.65;29.08;100374.69;5037773;28;45395;-71
2022/10/28 00:41:11;;;;;;;;;5.33;4.33;;;;;25.67;29.31;100386.22;5038933;28;45406;-71
2022/10/28 00:43:46;;;;;;;;;6.67;4.00;;;;;25.64;28.80;100386.31;5038933;28;45486;-71
2022/10/28 00:46:17;;;;;;;;;4.67;4.33;;;;;25.60;29.58;100381.06;5038910;28;45291;-71
2022/10/28 00:48:46;;;;;;;;;3.67;3.33;;;;;25.60;29.00;100382.84;5038775;28;45430;-71
2022/10/28 00:51:14;;;;;;;;;4.00;4.00;;;;;25.58;29.05;100380.22;5037665;28;45509;-71
2022/10/28 00:53:43;;;;;;;;;3.00;3.00;;;;;25.54;29.18;100375.03;5037692;28;45324;-71
2022/10/28 00:56:10;;;;;;;;;3.33;3.00;;;;;25.52;29.12;100382.25;5038764;28;46535;-71
2022/10/28 00:58:36;;;;;;;;;4.00;4.00;;;;;25.53;28.80;100368.81;5038607;28;45682;-71
2022/10/28 01:01:02;;;;;;;;;4.00;4.00;;;;;25.64;28.53;100378.28;5038368;28;45442;-71
2022/10/28 01:03:27;;;;;;;;;3.33;3.00;;;;;25.64;28.68;100360.41;5036996;28;46039;-71
2022/10/28 01:05:53;;;;;;;;;4.00;4.00;;;;;25.61;28.71;100357.88;5038947;28;46429;-71
2022/10/28 01:08:19;;;;;;;;;4.00;2.67;;;;;25.68;28.54;100356.69;5038432;28;45291;-71
2022/10/28 01:11:19;;;;;;;;;3.00;3.00;;;;;25.75;28.81;100382.31;5037206;28;45246;-71
2022/10/28 01:13:50;;;;;;;;;9.33;3.67;;;;;25.76;28.20;100383.19;5014703;28;45282;-71
2022/10/28 01:16:24;;;;;;;;;4.00;3.00;;;;;25.75;28.94;100390.34;5038115;28;45581;-71
2022/10/28 01:19:21;;;;;;;;;3.67;3.00;;;;;25.72;28.65;100394.94;5038487;28;45378;-71
2022/10/28 01:22:09;;;;;;;;;2.67;2.67;;;;;25.79;28.57;100399.16;4968859;28;45341;-71
2022/10/28 01:24:45;;;;;;;;;5.00;4.00;;;;;25.81;27.98;100410.66;5037259;28;45452;-71
2022/10/28 01:27:42;;;;;;;;;6.67;5.00;;;;;25.86;28.01;100413.16;5037938;28;46511;-71
2022/10/28 01:30:20;;;;;;;;;4.00;4.00;;;;;25.88;27.96;100414.00;5038345;28;45554;-71
2022/10/28 01:33:10;;;;;;;;;3.00;3.00;;;;;25.82;28.07;100384.78;5036811;28;45369;-71
2022/10/28 01:35:47;;;;;;;;;4.00;4.00;;;;;25.95;28.09;100411.06;5038436;28;45532;-71
2022/10/28 01:38:43;;;;;;;;;4.00;3.33;;;;;26.02;27.92;100400.16;5038038;28;46189;-71
2022/10/28 01:41:12;;;;;;;;;3.33;3.00;;;;;26.02;27.73;100402.81;5032627;28;45530;-71
2022/10/28 01:44:00;;;;;;;;;2.33;2.33;;;;;25.99;27.93;100385.09;5036879;28;45561;-71
2022/10/28 01:46:39;;;;;;;;;5.00;4.33;;;;;25.95;28.01;100395.03;5038391;28;45339;-71
2022/10/28 01:49:13;;;;;;;;;6.67;4.33;;;;;25.88;27.56;100389.91;5037809;28;46128;-71
2022/10/28 01:51:47;;;;;;;;;6.00;3.67;;;;;26.05;27.74;100381.31;5037797;28;45201;-71
2022/10/28 01:54:17;;;;;;;;;5.00;4.00;;;;;26.06;27.57;100391.94;5037529;28;45496;-71
2022/10/28 01:56:46;;;;;;;;;3.67;3.00;;;;;26.07;27.81;100403.53;5038032;28;45299;-72
2022/10/28 01:59:24;;;;;;;;;5.00;3.67;;;;;26.02;27.76;100411.72;5037794;28;45377;-72
2022/10/28 02:01:50;;;;;;;;;4.67;4.33;;;;;26.03;27.77;100401.91;5036277;28;45513;-71
2022/10/28 02:04:16;;;;;;;;;3.00;2.67;;;;;25.91;27.77;100393.38;5037782;28;45520;-72
2022/10/28 02:06:45;;;;;;;;;6.00;4.00;;;;;26.04;27.37;100387.59;5037903;28;45531;-71
2022/10/28 02:09:29;;;;;;;;;3.00;3.00;;;;;26.19;27.21;100400.41;5036242;28;46360;-72
2022/10/28 02:12:03;;;;;;;;;4.00;2.67;;;;;26.25;26.92;100407.34;5037732;28;45443;-72
2022/10/28 02:14:39;;;;;;;;;3.00;3.00;;;;;26.13;27.26;100398.81;5037945;28;45448;-72
2022/10/28 02:17:30;;;;;;;;;3.00;3.00;;;;;25.94;27.29;100379.00;5036346;28;45653;-72
2022/10/28 02:20:06;;;;;;;;;5.00;4.00;;;;;26.15;27.69;100404.13;5037735;28;45514;-72
2022/10/28 02:22:50;;;;;;;;;3.00;3.00;;;;;25.99;27.88;100391.28;5037417;28;45323;-72
2022/10/28 02:25:29;;;;;;;;;5.00;4.67;;;;;26.06;27.56;100407.13;5036229;28;45451;-72
2022/10/28 02:27:54;;;;;;;;;7.00;3.33;;;;;25.98;28.14;100397.59;5037514;28;45350;-72
2022/10/28 02:30:31;;;;;;;;;5.00;3.33;;;;;26.03;27.80;100393.88;5035646;28;46443;-72
2022/10/28 02:33:00;;;;;;;;;6.00;4.67;;;;;25.97;28.20;100406.53;5037518;28;45484;-72
2022/10/28 02:35:52;;;;;;;;;6.00;4.00;;;;;25.88;28.50;100392.56;5037438;28;45276;-72
2022/10/28 02:38:25;;;;;;;;;5.00;5.00;;;;;25.76;28.81;100402.78;5037488;28;45434;-72
2022/10/28 02:40:55;;;;;;;;;3.00;3.00;;;;;25.63;28.50;100373.88;5036986;28;46227;-72
2022/10/28 02:43:24;;;;;;;;;5.33;4.00;;;;;25.74;28.15;100391.25;5036488;28;45427;-72
2022/10/28 02:45:56;;;;;;;;;4.00;4.00;;;;;25.67;28.52;100387.06;5036969;28;45425;-72
2022/10/28 02:48:27;;;;;;;;;6.33;4.00;;;;;25.65;28.76;100396.09;5037459;28;45529;-72
2022/10/28 02:51:00;;;;;;;;;3.33;3.33;;;;;25.58;28.74;100385.56;5036499;28;46138;-72
2022/10/28 02:53:32;;;;;;;;;3.00;3.00;;;;;25.66;28.64;100389.78;5037004;28;45330;-72
2022/10/28 02:56:01;;;;;;;;;5.00;4.00;;;;;25.65;28.67;100383.59;5035713;28;45956;-74
2022/10/28 02:58:27;;;;;;;;;5.33;3.33;;;;;25.52;28.72;100369.75;5037147;28;45528;-72
2022/10/28 03:00:53;;;;;;;;;6.33;4.00;;;;;25.64;28.53;100400.53;5036442;28;45504;-72
2022/10/28 03:03:18;;;;;;;;;6.33;5.00;;;;;25.61;28.91;100406.00;5034953;28;45485;-73
2022/10/28 03:05:44;;;;;;;;;3.00;3.00;;;;;24.91;28.34;100281.81;5035874;28;45472;-72
2022/10/28 03:08:09;;;;;;;;;5.67;4.67;;;;;25.49;28.64;100390.41;5037216;28;45394;-72
2022/10/28 03:10:35;;;;;;;;;5.00;4.00;;;;;25.44;28.42;100368.28;5036872;28;46361;-72
2022/10/28 03:13:00;;;;;;;;;3.67;3.00;;;;;25.48;28.31;100380.59;5036927;28;45406;-72
2022/10/28 03:15:26;;;;;;;;;3.33;3.33;;;;;25.55;28.06;100383.03;5037057;28;45420;-73
2022/10/28 03:17:51;;;;;;;;;4.33;4.33;;;;;25.48;28.17;100381.47;5035712;28;45418;-75
2022/10/28 03:20:17;;;;;;;;;5.00;4.00;;;;;25.59;28.35;100378.44;5035316;28;46053;-74
2022/10/28 03:22:45;;;;;;;;;3.67;3.33;;;;;25.46;27.92;100356.59;5035419;28;45480;-72
2022/10/28 03:25:10;;;;;;;;;5.33;3.33;;;;;25.55;27.75;100371.47;5036999;28;45310;-72
2022/10/28 03:27:39;;;;;;;;;3.00;2.00;;;;;25.68;27.97;100388.81;5036967;28;45349;-72
2022/10/28 03:30:06;;;;;;;;;5.33;3.67;;;;;25.63;27.70;100374.72;5036704;28;45590;-72
2022/10/28 03:32:31;;;;;;;;;4.67;3.00;;;;;25.66;27.37;100384.44;5036731;28;45379;-72
2022/10/28 03:34:57;;;;;;;;;5.00;4.67;;;;;25.44;27.57;100339.72;5036678;28;45276;-72
2022/10/28 03:37:22;;;;;;;;;4.00;2.33;;;;;25.04;27.62;100279.56;5035506;28;45404;-72
2022/10/28 03:39:48;;;;;;;;;4.33;4.00;;;;;25.62;27.95;100367.63;5035189;28;45559;-72
2022/10/28 03:42:13;;;;;;;;;5.00;3.00;;;;;25.59;27.45;100379.31;5036517;28;45512;-72
2022/10/28 03:44:39;;;;;;;;;4.00;4.00;;;;;25.50;27.83;100368.06;5036443;28;45510;-72
2022/10/28 03:47:04;;;;;;;;;4.00;3.00;;;;;25.52;27.75;100383.13;5037021;28;45345;-72
2022/10/28 03:49:30;;;;;;;;;5.33;4.00;;;;;25.52;27.93;100382.25;5035071;28;47585;-72
2022/10/28 03:51:55;;;;;;;;;5.00;5.00;;;;;25.46;28.21;100369.97;5036371;28;45351;-72
2022/10/28 03:54:20;;;;;;;;;5.33;4.00;;;;;25.47;27.81;100374.41;5035118;28;46084;-73
2022/10/28 03:56:46;;;;;;;;;5.00;5.00;;;;;25.48;27.73;100372.59;5035358;28;45529;-72
2022/10/28 03:59:11;;;;;;;;;5.67;4.67;;;;;25.36;28.15;100364.03;5035719;28;46687;-72
2022/10/28 04:01:37;;;;;;;;;6.00;3.33;;;;;25.32;27.91;100354.38;5035072;28;45609;-72
2022/10/28 04:04:03;;;;;;;;;3.67;3.00;;;;;25.36;27.72;100356.03;5036481;28;45329;-72
2022/10/28 04:06:28;;;;;;;;;5.00;3.67;;;;;25.43;27.69;100356.72;5034955;28;45279;-72
2022/10/28 04:08:54;;;;;;;;;5.00;4.00;;;;;25.43;27.59;100367.41;5035717;28;45575;-72
2022/10/28 04:11:19;;;;;;;;;5.00;3.67;;;;;25.47;27.73;100376.19;5036085;28;45484;-72
2022/10/28 04:13:45;;;;;;;;;5.00;4.67;;;;;25.55;27.89;100377.69;5035583;28;45260;-72
2022/10/28 04:16:10;;;;;;;;;5.67;4.00;;;;;25.44;27.58;100369.13;5039810;28;45364;-72
2022/10/28 04:18:35;;;;;;;;;4.67;4.67;;;;;25.48;28.04;100383.28;5039343;28;45417;-72
2022/10/28 04:21:02;;;;;;;;;6.00;5.00;;;;;25.48;28.09;100392.16;5039351;28;45378;-72
2022/10/28 04:23:28;;;;;;;;;5.00;4.67;;;;;25.40;27.99;100379.06;5039421;28;45484;-73
2022/10/28 04:25:54;;;;;;;;;4.67;4.67;;;;;25.28;28.21;100367.91;5038152;28;45508;-72
2022/10/28 04:28:22;;;;;;;;;4.00;4.00;;;;;25.22;27.56;100357.44;5037911;28;45729;-72
2022/10/28 04:30:48;;;;;;;;;4.00;4.00;;;;;25.37;27.63;100383.66;5039167;28;45861;-72
2022/10/28 04:33:14;;;;;;;;;6.67;4.00;;;;;25.31;28.07;100398.09;5039142;28;45476;-72
2022/10/28 04:35:41;;;;;;;;;6.00;5.00;;;;;25.22;27.69;100390.38;5039211;28;45362;-72
2022/10/28 04:38:08;;;;;;;;;5.00;3.00;;;;;25.30;28.20;100403.50;5054847;28;45528;-72
2022/10/28 04:40:34;;;;;;;;;4.00;4.00;;;;;25.26;28.13;100396.50;5038091;28;45277;-72
2022/10/28 04:42:59;;;;;;;;;4.00;3.33;;;;;25.27;27.94;100417.84;5039098;28;45267;-72
2022/10/28 04:45:25;;;;;;;;;6.67;4.67;;;;;25.18;28.24;100394.06;5039033;28;45555;-72
2022/10/28 04:47:56;;;;;;;;;4.00;3.67;;;;;25.15;28.15;100397.72;5038884;28;46351;-72
2022/10/28 04:50:22;;;;;;;;;5.67;4.33;;;;;25.24;28.22;100422.41;5037578;28;45434;-72
2022/10/28 04:52:47;;;;;;;;;5.00;4.67;;;;;25.16;28.09;100410.13;5038400;28;45461;-72
2022/10/28 04:55:13;;;;;;;;;5.00;5.00;;;;;25.08;28.70;100403.28;5039202;28;45318;-73
2022/10/28 04:57:38;;;;;;;;;6.00;5.00;;;;;25.09;27.98;100397.91;5039074;28;46436;-72
2022/10/28 05:00:04;;;;;;;;;8.00;5.00;;;;;25.20;28.24;100406.44;5038726;28;45378;-72
2022/10/28 05:02:30;;;;;;;;;4.00;4.00;;;;;25.12;27.75;100387.09;5037490;28;45284;-72
2022/10/28 05:04:59;;;;;;;;;4.33;4.00;;;;;25.07;28.50;100377.47;5038943;28;45377;-72
2022/10/28 05:07:24;;;;;;;;;7.33;4.00;;;;;25.22;28.32;100414.44;5038589;28;46404;-72
2022/10/28 05:09:50;;;;;;;;;2.67;2.33;;;;;25.13;28.60;100407.56;5038646;28;45382;-72
2022/10/28 05:12:15;;;;;;;;;5.67;4.67;;;;;25.19;28.17;100420.75;5038488;28;45422;-72
2022/10/28 05:14:41;;;;;;;;;4.33;4.00;;;;;25.09;28.65;100405.03;5038657;28;45593;-72
2022/10/28 05:17:09;;;;;;;;;5.00;4.00;;;;;25.08;28.43;100408.63;5038811;28;46191;-71
2022/10/28 05:19:34;;;;;;;;;7.00;5.00;;;;;25.01;28.43;100419.53;5053897;28;45489;-72
2022/10/28 05:22:00;;;;;;;;;5.00;4.00;;;;;25.00;28.36;100417.78;5038450;28;45480;-72
2022/10/28 05:24:25;;;;;;;;;4.67;4.00;;;;;24.96;28.26;100421.47;5036911;28;45598;-72
2022/10/28 05:26:51;;;;;;;;;6.00;4.00;;;;;25.02;28.30;100437.31;5038217;28;45638;-72
2022/10/28 05:29:18;;;;;;;;;6.00;4.00;;;;;25.05;28.68;100440.78;5037178;28;45508;-72
2022/10/28 05:31:44;;;;;;;;;6.33;6.00;;;;;24.89;28.58;100430.63;5037120;28;45336;-72
2022/10/28 05:34:10;;;;;;;;;4.00;4.00;;;;;24.95;28.68;100450.94;5038200;28;45383;-72
2022/10/28 05:36:35;;;;;;;;;6.00;5.00;;;;;24.81;28.49;100430.84;5037706;28;45496;-71
2022/10/28 05:39:01;;;;;;;;;4.00;4.00;;;;;24.88;28.66;100436.00;5037679;28;45288;-72
2022/10/28 05:41:27;;;;;;;;;3.67;3.00;;;;;24.86;28.57;100445.84;5038106;28;45773;-71
2022/10/28 05:43:52;;;;;;;;;6.00;4.00;;;;;24.87;28.77;100453.84;5038248;28;45642;-72
2022/10/28 05:46:18;;;;;;;;;5.00;4.00;;;;;24.88;28.93;100465.38;5037836;28;45639;-71
2022/10/28 05:48:46;;;;;;;;;7.67;6.00;;;;;24.56;28.51;100419.16;5037618;28;45484;-72
2022/10/28 05:51:11;;;;;;;;;6.33;5.00;;;;;24.74;28.87;100445.31;5053058;28;45421;-72
2022/10/28 05:53:37;;;;;;;;;6.00;4.00;;;;;24.69;29.04;100449.94;5037807;28;45231;-72
2022/10/28 05:56:03;;;;;;;;;4.67;4.67;;;;;24.71;29.08;100456.09;5037976;28;46543;-71
2022/10/28 05:58:28;;;;;;;;;7.67;5.00;;;;;24.75;28.71;100459.53;5037945;28;45310;-71
2022/10/28 06:00:54;;;;;;;;;5.00;4.00;;;;;24.77;28.79;100447.00;5053139;28;45384;-72
2022/10/28 06:03:19;;;;;;;;;4.67;4.67;;;;;24.73;28.45;100445.34;5037770;28;45347;-71
2022/10/28 06:05:45;;;;;;;;;7.00;4.00;;;;;24.74;28.30;100458.66;5037461;28;45523;-71
2022/10/28 06:08:12;;;;;;;;;6.33;5.00;;;;;24.76;28.58;100451.47;5038021;28;45425;-71
2022/10/28 06:10:38;;;;;;;;;5.33;5.00;;;;;24.72;27.99;100444.47;5037984;28;46060;-71
2022/10/28 06:13:04;;;;;;;;;5.00;4.00;;;;;24.77;28.46;100469.25;5037863;28;45493;-71
2022/10/28 06:15:30;;;;;;;;;3.00;3.00;;;;;24.78;28.13;100472.81;5037462;28;45414;-71
2022/10/28 06:17:56;;;;;;;;;5.33;5.00;;;;;24.70;28.23;100462.34;5037573;28;45493;-71
2022/10/28 06:20:21;;;;;;;;;5.67;5.00;;;;;24.53;28.68;100444.16;5036205;28;45529;-72
2022/10/28 06:22:52;;;;;;;;;5.00;4.67;;;;;24.59;28.46;100456.44;5037422;28;45303;-71
2022/10/28 06:25:19;;;;;;;;;6.00;5.67;;;;;24.56;28.04;100435.19;5052410;28;45546;-71
2022/10/28 06:27:45;;;;;;;;;5.67;3.33;;;;;24.81;28.49;100475.41;5037229;28;45785;-71
2022/10/28 06:30:11;;;;;;;;;5.33;5.00;;;;;24.72;28.17;100465.84;5037742;28;45485;-71
2022/10/28 06:32:36;;;;;;;;;6.00;5.00;;;;;24.75;28.18;100463.09;5037325;28;45379;-71
2022/10/28 06:35:02;;;;;;;;;7.33;4.00;;;;;24.75;28.53;100471.09;5037128;28;47122;-71
2022/10/28 06:37:27;;;;;;;;;5.67;5.33;;;;;24.78;28.12;100470.13;5036209;28;45315;-72
2022/10/28 06:39:53;;;;;;;;;5.67;4.33;;;;;24.72;28.42;100468.50;5037329;28;45326;-71
2022/10/28 06:42:19;;;;;;;;;7.00;5.00;;;;;24.58;28.46;100463.56;5037389;28;45496;-71
2022/10/28 06:44:45;;;;;;;;;4.33;4.00;;;;;24.59;28.34;100464.44;5034924;28;46518;-70
2022/10/28 06:47:10;;;;;;;;;5.67;4.33;;;;;24.63;28.50;100476.81;5035677;28;45392;-71
2022/10/28 06:49:36;;;;;;;;;6.00;5.00;;;;;24.77;28.37;100495.97;5033903;28;45332;-71
2022/10/28 06:52:02;;;;;;;;;5.00;4.67;;;;;24.78;28.68;100510.22;5050992;28;45565;-71
2022/10/28 06:54:27;;;;;;;;;4.00;4.00;;;;;24.83;28.03;100516.31;5032401;28;45586;-70
2022/10/28 06:56:53;;;;;;;;;3.67;3.67;;;;;24.77;28.51;100497.75;5035388;28;45549;-71
2022/10/28 06:59:21;;;;;;;;;7.00;5.00;;;;;24.84;28.01;100503.81;5050891;28;45482;-71
2022/10/28 07:01:47;;;;;;;;;6.33;5.33;;;;;24.78;28.68;100494.19;5035225;28;45516;-71
2022/10/28 07:04:12;;;;;;;;;6.33;5.33;;;;;24.92;28.65;100509.78;5033444;28;47711;-71
2022/10/28 07:06:39;;;;;;;;;5.33;3.67;;;;;24.97;28.47;100521.25;5035403;28;45527;-71
2022/10/28 07:09:06;;;;;;;;;8.00;6.33;;;;;25.07;28.59;100536.06;5034854;28;45505;-71
2022/10/28 07:11:32;;;;;;;;;7.00;6.33;;;;;25.11;28.48;100526.13;5036193;28;45530;-71
2022/10/28 07:13:58;;;;;;;;;6.67;4.67;;;;;25.23;28.17;100551.66;5035234;28;46182;-71
2022/10/28 07:16:23;;;;;;;;;5.00;5.00;;;;;25.28;28.18;100550.59;5035920;28;45405;-71
2022/10/28 07:18:51;;;;;;;;;7.33;7.00;;;;;25.30;28.17;100546.06;5034618;28;45400;-71
2022/10/28 07:21:17;;;;;;;;;7.00;5.33;;;;;25.30;27.92;100546.06;5051310;28;45738;-71
2022/10/28 07:23:45;;;;;;;;;5.67;5.33;;;;;25.48;27.87;100562.47;5035869;28;46074;-71
2022/10/28 07:26:10;;;;;;;;;4.00;4.00;;;;;25.56;28.14;100574.66;5031953;28;45379;-71
2022/10/28 07:28:36;;;;;;;;;8.33;5.00;;;;;25.69;27.59;100582.31;5034958;28;45481;-72
2022/10/28 07:31:02;;;;;;;;;6.00;5.00;;;;;25.83;27.70;100589.91;5035837;28;45470;-71
2022/10/28 07:33:27;;;;;;;;;4.33;3.00;;;;;25.89;27.67;100590.56;5034733;28;45543;-72
2022/10/28 07:35:53;;;;;;;;;5.33;4.67;;;;;26.04;27.46;100591.88;5036482;28;45420;-71
2022/10/28 07:38:18;;;;;;;;;5.33;4.00;;;;;26.11;27.25;100589.91;5036413;28;45417;-71
2022/10/28 07:40:44;;;;;;;;;4.67;4.67;;;;;26.14;27.34;100579.06;5036366;28;45702;-71
2022/10/28 07:43:09;;;;;;;;;5.33;4.33;;;;;26.41;27.38;100587.09;5051736;28;46997;-71
2022/10/28 07:45:36;;;;;;;;;5.00;4.00;;;;;26.57;27.56;100599.00;5036343;28;45291;-71
2022/10/28 07:48:02;;;;;;;;;6.00;5.00;;;;;26.64;27.27;100588.97;5052930;28;45492;-71
2022/10/28 07:50:28;;;;;;;;;5.00;4.00;;;;;26.76;27.41;100599.28;5039972;28;45278;-71
2022/10/28 07:52:53;;;;;;;;;6.00;6.00;;;;;26.76;27.59;100594.78;5039566;28;45943;-71
2022/10/28 07:55:20;;;;;;;;;6.67;6.33;;;;;26.83;27.16;100590.06;5039696;28;45496;-71
2022/10/28 07:57:46;;;;;;;;;5.00;5.00;;;;;27.41;26.98;100596.84;5040153;28;45269;-71
2022/10/28 08:00:13;;;;;;;;;8.67;6.33;;;;;28.10;26.16;100602.16;5039880;28;45469;-72
2022/10/28 08:02:39;;;;;;;;;7.33;5.33;;;;;28.73;25.45;100611.06;5039443;28;45488;-71
2022/10/28 08:05:05;;;;;;;;;6.67;6.67;;;;;28.70;25.15;100600.44;5039065;28;45295;-71
2022/10/28 08:07:30;;;;;;;;;5.00;4.00;;;;;28.29;25.16;100607.59;5039503;28;45410;-71
2022/10/28 08:09:57;;;;;;;;;5.00;4.00;;;;;28.00;26.08;100603.47;5039675;28;45532;-71
2022/10/28 08:12:22;;;;;;;;;4.00;4.00;;;;;27.80;26.19;100615.00;5039368;28;45550;-71
2022/10/28 08:14:48;;;;;;;;;5.67;4.00;;;;;27.57;26.32;100596.19;5054919;28;45336;-71
2022/10/28 08:17:13;;;;;;;;;6.00;5.00;;;;;27.42;26.25;100614.72;5038269;28;45352;-72
2022/10/28 08:19:39;;;;;;;;;6.33;6.33;;;;;27.19;26.84;100600.31;5039515;28;45428;-72
2022/10/28 08:22:05;;;;;;;;;4.33;4.33;;;;;27.14;26.87;100597.84;5039164;28;46610;-71
2022/10/28 08:24:31;;;;;;;;;6.67;5.67;;;;;27.11;26.56;100611.34;5054690;28;45661;-72
2022/10/28 08:26:56;;;;;;;;;10.67;7.00;;;;;27.03;26.86;100605.41;5039317;28;45314;-71
2022/10/28 08:29:22;;;;;;;;;4.33;4.00;;;;;26.94;26.80;100605.75;5039262;28;45449;-72
2022/10/28 08:31:47;;;;;;;;;6.33;6.00;;;;;26.71;26.24;100572.63;5039331;28;46516;-72
2022/10/28 08:34:13;;;;;;;;;4.33;3.67;;;;;26.88;26.16;100614.00;5054209;28;45338;-71
2022/10/28 08:36:38;;;;;;;;;2.00;2.00;;;;;26.88;26.25;100619.34;5039044;28;45422;-72
2022/10/28 08:39:04;;;;;;;;;6.00;4.33;;;;;26.84;26.16;100612.38;5039159;28;45524;-71
2022/10/28 08:41:38;;;;;;;;;7.00;5.33;;;;;26.88;26.07;100620.25;5038972;28;45447;-72
2022/10/28 08:44:23;;;;;;;;;6.00;4.00;;;;;26.82;26.06;100625.84;5037488;28;45422;-72
2022/10/28 08:47:17;;;;;;;;;5.00;4.00;;;;;26.81;26.14;100628.56;5039140;28;45479;-72
2022/10/28 08:49:44;;;;;;;;;6.33;5.33;;;;;27.05;25.52;100626.78;5037619;28;45463;-72
2022/10/28 08:52:31;;;;;;;;;4.67;4.67;;;;;27.56;25.42;100634.69;5038648;28;46796;-73
2022/10/28 08:55:00;;;;;;;;;8.33;4.33;;;;;28.12;24.75;100662.91;5054368;28;45238;-71
2022/10/28 08:57:38;;;;;;;;;5.00;4.00;;;;;28.32;24.54;100656.69;5037323;28;45272;-73
2022/10/28 09:00:24;;;;;;;;;20.33;17.33;;;;;28.44;25.10;100675.94;5037938;28;45499;-73
2022/10/28 09:03:11;;;;;;;;;46.00;37.25;;;;;28.38;24.91;100679.75;5053769;28;45502;-71
2022/10/28 09:05:43;;;;;;;;;7.67;7.33;;;;;28.15;24.83;100668.16;5038423;28;45425;-71
2022/10/28 09:08:24;;;;;;;;;7.67;7.67;;;;;28.10;25.00;100677.34;5053751;28;45621;-72
2022/10/28 09:11:27;;;;;;;;;5.33;5.00;;;;;27.98;25.20;100685.91;5038877;28;45255;-72
2022/10/28 09:13:55;;;;;;;;;8.00;6.00;;;;;27.77;25.25;100678.59;5036923;28;47981;-72
2022/10/28 09:16:47;;;;;;;;;6.67;5.00;;;;;27.58;25.86;100691.84;5038604;28;45504;-73
2022/10/28 09:19:14;;;;;;;;;4.67;4.00;;;;;27.49;26.08;100692.19;5038421;28;45510;-72
2022/10/28 09:21:47;;;;;;;;;5.33;5.33;;;;;27.25;25.84;100663.63;5038032;28;45429;-72
2022/10/28 09:24:36;;;;;;;;;5.00;5.00;;;;;27.37;25.81;100700.72;5037913;28;46030;-72
2022/10/28 09:27:35;;;;;;;;;6.00;6.00;;;;;27.25;25.66;100694.00;5037749;28;45353;-72
2022/10/28 09:30:19;;;;;;;;;9.00;7.00;;;;;27.22;25.52;100698.56;5037116;28;45452;-72
2022/10/28 09:33:13;;;;;;;;;7.00;5.00;;;;;27.12;25.79;100687.31;5036620;28;45568;-73
2022/10/28 09:35:43;;;;;;;;;4.67;4.67;;;;;27.09;26.03;100682.06;5037890;28;46006;-72
2022/10/28 09:38:20;;;;;;;;;4.33;3.67;;;;;27.11;25.59;100685.56;5036615;28;45247;-73
2022/10/28 09:40:53;;;;;;;;;5.00;5.00;;;;;27.10;25.55;100684.69;5038152;28;45450;-72
2022/10/28 09:43:30;;;;;;;;;5.33;5.00;;;;;26.98;25.60;100672.59;5053256;28;45320;-72
2022/10/28 09:46:27;;;;;;;;;4.67;4.67;;;;;26.98;25.42;100679.78;5037605;28;46043;-72
2022/10/28 09:48:58;;;;;;;;;6.00;4.00;;;;;27.03;25.70;100690.31;5029152;28;45205;-73
2022/10/28 09:51:48;;;;;;;;;5.33;4.00;;;;;27.04;25.72;100702.78;5037982;28;45500;-72
2022/10/28 09:54:14;;;;;;;;;4.00;4.00;;;;;27.04;25.65;100694.75;5036439;28;45399;-72
2022/10/28 09:56:40;;;;;;;;;5.33;4.33;;;;;27.06;25.58;100696.47;5037433;28;45358;-72
2022/10/28 09:59:11;;;;;;;;;6.67;5.00;;;;;27.02;25.45;100700.19;5052914;28;45548;-72
2022/10/28 10:01:40;;;;;;;;;4.00;4.00;;;;;27.09;25.56;100704.38;5037329;28;45200;-72
2022/10/28 10:04:21;;;;;;;;;5.00;4.00;;;;;27.13;25.64;100711.38;5037664;28;45400;-72
2022/10/28 10:07:10;;;;;;;;;4.33;4.00;;;;;27.15;25.12;100714.88;5052819;28;45586;-72
2022/10/28 10:09:37;;;;;;;;;4.33;4.33;;;;;27.17;25.06;100713.00;5036966;28;45291;-72
2022/10/28 10:12:11;;;;;;;;;5.00;4.00;;;;;27.12;24.89;100711.44;5036068;28;45451;-72
2022/10/28 10:14:49;;;;;;;;;5.00;4.00;;;;;27.22;24.41;100720.00;5037490;28;45448;-72
2022/10/28 10:17:19;;;;;;;;;7.67;5.33;;;;;27.31;25.13;100730.44;5037291;28;46388;-72
2022/10/28 10:20:00;;;;;;;;;5.67;5.00;;;;;27.19;25.00;100692.38;5052574;28;45278;-72
2022/10/28 10:22:31;;;;;;;;;4.00;4.00;;;;;27.29;24.99;100710.84;5037889;28;45349;-72
2022/10/28 10:24:57;;;;;;;;;4.00;4.00;;;;;27.35;25.30;100711.50;5053376;28;45608;-73
2022/10/28 10:27:25;;;;;;;;;5.00;4.33;;;;;27.38;24.90;100703.34;5037575;28;45515;-73
2022/10/28 10:29:53;;;;;;;;;4.67;4.67;;;;;27.46;25.43;100708.44;5037466;28;45351;-73
2022/10/28 10:32:24;;;;;;;;;6.33;5.00;;;;;27.55;25.22;100716.09;5037302;28;45618;-73
2022/10/28 10:35:05;;;;;;;;;4.00;4.00;;;;;27.63;25.09;100713.13;5037299;28;45383;-73
2022/10/28 10:37:34;;;;;;;;;4.33;4.00;;;;;27.74;25.08;100710.06;5036558;28;46624;-73
2022/10/28 10:40:30;;;;;;;;;5.33;4.00;;;;;27.82;24.85;100712.44;5036456;28;45415;-73
2022/10/28 10:43:21;;;;;;;;;6.00;5.33;;;;;27.90;25.06;100724.66;5035802;28;45351;-72
2022/10/28 10:46:16;;;;;;;;;4.67;4.00;;;;;27.98;24.45;100715.44;5037268;28;45473;-72
2022/10/28 10:48:43;;;;;;;;;7.00;4.33;;;;;28.02;24.43;100703.63;5036781;28;46214;-73
2022/10/28 10:51:16;;;;;;;;;4.67;4.67;;;;;28.19;24.68;100714.53;5036866;28;45458;-73
2022/10/28 10:53:47;;;;;;;;;5.00;5.00;;;;;28.22;24.48;100692.94;5036894;28;45487;-73
2022/10/28 10:56:23;;;;;;;;;5.00;5.00;;;;;28.41;24.52;100713.66;5037153;28;45402;-70
2022/10/28 10:58:51;;;;;;;;;4.00;4.00;;;;;28.47;24.21;100710.72;5036732;28;46258;-73
2022/10/28 11:01:21;;;;;;;;;3.00;2.33;;;;;28.53;24.30;100702.44;5036778;28;45504;-73
2022/10/28 11:03:52;;;;;;;;;5.00;5.00;;;;;28.63;24.37;100716.34;5052326;28;45280;-75
2022/10/28 11:06:40;;;;;;;;;6.00;5.00;;;;;28.61;24.59;100699.41;5036984;28;45586;-73
2022/10/28 11:09:23;;;;;;;;;6.00;4.33;;;;;28.72;24.61;100714.16;5036313;28;46293;-73
2022/10/28 11:11:48;;;;;;;;;3.33;3.00;;;;;28.73;24.43;100707.84;5035258;28;45621;-73
2022/10/28 11:14:14;;;;;;;;;5.33;3.67;;;;;28.82;24.65;100720.00;5036444;28;45529;-73
2022/10/28 11:16:57;;;;;;;;;7.00;5.00;;;;;28.73;24.67;100699.78;5036657;28;45518;-74
2022/10/28 11:19:30;;;;;;;;;4.33;4.00;;;;;28.85;24.54;100708.25;5036482;28;46499;-73
2022/10/28 11:22:14;;;;;;;;;5.33;5.33;;;;;28.87;24.49;100709.03;5035211;28;45363;-73
2022/10/28 11:25:08;;;;;;;;;5.00;5.00;;;;;28.81;24.52;100686.00;5039890;28;45463;-75
2022/10/28 11:27:43;;;;;;;;;8.00;7.00;;;;;28.90;24.82;100696.34;5038893;28;45530;-73
2022/10/28 11:30:44;;;;;;;;;4.67;4.00;;;;;28.81;25.43;100680.63;5039920;28;46413;-73
2022/10/28 11:33:16;;;;;;;;;4.33;4.33;;;;;28.99;24.84;100704.94;5036617;28;45471;-73
2022/10/28 11:36:13;;;;;;;;;4.00;4.00;;;;;28.91;24.79;100676.59;5040108;28;45508;-73
2022/10/28 11:38:48;;;;;;;;;5.67;5.00;;;;;29.00;26.27;100704.88;5039901;28;45298;-73
2022/10/28 11:41:41;;;;;;;;;3.67;3.00;;;;;28.95;26.16;100705.09;5039625;28;45702;-73